MSC Davos — A8IG3 — position and weather

sailwx.info

Track history (hours):
 
Tides and Currents Weather Stations Pressure Air Temp Water Temp Dewpoint Dewpoint Depression Visibility Wind Speed Wind Dir Waves Ship Positions

MSC Davos

Last reported at 2017-Mar-29 07:32 UTC. Time now 2017-Mar-30 02:59 UTC.
Position N 01°14' E 103°59'.

Length 210.9 m; beam 32.3 m; draft 12 m.

Type: Ship (hazmat cat D). MMSI: 636090972.

Date/timePositionNaut miles runAvg speedWind from/ knotsBaromVisibWave heightAir tempDewpointWater temp
2017-Mar-29 07:32N 01°14' E 103°59'1111.4
2017-Mar-29 06:33N 01°13' E 103°48'3 2.9
2017-Mar-29 05:31N 01°15' E 103°47'0 0.0
2017-Mar-29 04:25N 01°15' E 103°47'0 0.0
2017-Mar-29 03:28N 01°15' E 103°47'0 0.0
2017-Mar-29 02:31N 01°15' E 103°47'0 0.0
2017-Mar-29 01:28N 01°15' E 103°47'0 0.0
2017-Mar-29 00:28N 01°15' E 103°47'0 0.0
2017-Mar-28 23:31N 01°15' E 103°47'0 0.0
2017-Mar-28 22:31N 01°15' E 103°47'0 0.0
2017-Mar-28 21:31N 01°15' E 103°47'0 0.0
2017-Mar-28 20:28N 01°15' E 103°47'0 0.0
2017-Mar-28 19:31N 01°15' E 103°47'0 0.0
2017-Mar-28 18:31N 01°15' E 103°47'0 0.0
2017-Mar-28 17:25N 01°15' E 103°47'0 0.0
2017-Mar-28 16:31N 01°15' E 103°47'1 0.7
2017-Mar-28 15:33N 01°15' E 103°46'5 5.0
2017-Mar-28 14:33N 01°14' E 103°42'8 7.4
2017-Mar-28 13:32N 01°13' E 103°34'1 1.3
2017-Mar-28 12:29N 01°15' E 103°34'0 0.0
2017-Mar-28 11:23N 01°15' E 103°34'0 0.1
2017-Mar-28 10:32N 01°15' E 103°34'0 0.1
2017-Mar-28 09:32N 01°15' E 103°34'0 0.1
2017-Mar-28 08:32N 01°15' E 103°34'0 0.1
2017-Mar-28 07:27N 01°15' E 103°34'2 2.3
2017-Mar-28 06:33N 01°16' E 103°33'6 5.0
2017-Mar-28 05:22N 01°22' E 103°33'0 0.0
2017-Mar-28 04:25N 01°22' E 103°33'0 0.0
2017-Mar-28 03:31N 01°22' E 103°33'0 0.0
2017-Mar-28 02:31N 01°22' E 103°33'0 0.0
2017-Mar-28 01:25N 01°22' E 103°33'0 0.0
2017-Mar-28 00:28N 01°22' E 103°33'0 0.0
2017-Mar-27 23:31N 01°22' E 103°33'0 0.0
2017-Mar-27 22:25N 01°22' E 103°33'0 0.0
2017-Mar-27 20:16N 01°22' E 103°33'0 0.0
2017-Mar-27 19:25N 01°22' E 103°33'0 0.0
2017-Mar-27 18:22N 01°22' E 103°33'0 0.0
2017-Mar-27 16:28N 01°22' E 103°33'1 0.7
2017-Mar-27 15:33N 01°22' E 103°33'7 7.2
2017-Mar-27 14:33N 01°15' E 103°30'2 1.5
2017-Mar-27 13:32N 01°15' E 103°29'0 0.2
2017-Mar-27 12:32N 01°15' E 103°29'0 0.1
2017-Mar-27 11:32N 01°16' E 103°29'0 0.0
2017-Mar-27 08:29N 01°16' E 103°29'0 0.1
2017-Mar-27 05:32N 01°16' E 103°29'0 0.0
2017-Mar-27 04:29N 01°15' E 103°29'0 0.3
2017-Mar-27 03:33N 01°15' E 103°29'5 5.0
2017-Mar-27 02:33N 01°10' E 103°29'3911.6
2017-Mar-26 23:09N 01°33' E 102°56'711.7
2017-Mar-26 22:33N 01°36' E 102°51'1211.3
2017-Mar-26 21:32N 01°42' E 102°41'1110.9
2017-Mar-26 20:33N 01°46' E 102°31'  
Track history (hours):
 
Tides and Currents Weather Stations Pressure Air Temp Water Temp Dewpoint Dewpoint Depression Visibility Wind Speed Wind Dir Waves Ship Positions

MSC Davos

Last reported at 2017-Mar-29 07:32 UTC. Time now 2017-Mar-30 02:59 UTC.
Position N 01°14' E 103°59'.

Length 210.9 m; beam 32.3 m; draft 12 m.

Type: Ship (hazmat cat D). MMSI: 636090972.

Date/timePositionNaut miles runAvg speedWind from/ knotsBaromVisibWave heightAir tempDewpointWater temp
2017-Mar-29 07:32N 01°14' E 103°59'1111.4
2017-Mar-29 06:33N 01°13' E 103°48'3 2.9
2017-Mar-29 05:31N 01°15' E 103°47'0 0.0
2017-Mar-29 04:25N 01°15' E 103°47'0 0.0
2017-Mar-29 03:28N 01°15' E 103°47'0 0.0
2017-Mar-29 02:31N 01°15' E 103°47'0 0.0
2017-Mar-29 01:28N 01°15' E 103°47'0 0.0
2017-Mar-29 00:28N 01°15' E 103°47'0 0.0
2017-Mar-28 23:31N 01°15' E 103°47'0 0.0
2017-Mar-28 22:31N 01°15' E 103°47'0 0.0
2017-Mar-28 21:31N 01°15' E 103°47'0 0.0
2017-Mar-28 20:28N 01°15' E 103°47'0 0.0
2017-Mar-28 19:31N 01°15' E 103°47'0 0.0
2017-Mar-28 18:31N 01°15' E 103°47'0 0.0
2017-Mar-28 17:25N 01°15' E 103°47'0 0.0
2017-Mar-28 16:31N 01°15' E 103°47'1 0.7
2017-Mar-28 15:33N 01°15' E 103°46'5 5.0
2017-Mar-28 14:33N 01°14' E 103°42'8 7.4
2017-Mar-28 13:32N 01°13' E 103°34'1 1.3
2017-Mar-28 12:29N 01°15' E 103°34'0 0.0
2017-Mar-28 11:23N 01°15' E 103°34'0 0.1
2017-Mar-28 10:32N 01°15' E 103°34'0 0.1
2017-Mar-28 09:32N 01°15' E 103°34'0 0.1
2017-Mar-28 08:32N 01°15' E 103°34'0 0.1
2017-Mar-28 07:27N 01°15' E 103°34'2 2.3
2017-Mar-28 06:33N 01°16' E 103°33'6 5.0
2017-Mar-28 05:22N 01°22' E 103°33'0 0.0
2017-Mar-28 04:25N 01°22' E 103°33'0 0.0
2017-Mar-28 03:31N 01°22' E 103°33'0 0.0
2017-Mar-28 02:31N 01°22' E 103°33'0 0.0
2017-Mar-28 01:25N 01°22' E 103°33'0 0.0
2017-Mar-28 00:28N 01°22' E 103°33'0 0.0
2017-Mar-27 23:31N 01°22' E 103°33'0 0.0
2017-Mar-27 22:25N 01°22' E 103°33'0 0.0
2017-Mar-27 20:16N 01°22' E 103°33'0 0.0
2017-Mar-27 19:25N 01°22' E 103°33'0 0.0
2017-Mar-27 18:22N 01°22' E 103°33'0 0.0
2017-Mar-27 16:28N 01°22' E 103°33'1 0.7
2017-Mar-27 15:33N 01°22' E 103°33'7 7.2
2017-Mar-27 14:33N 01°15' E 103°30'2 1.5
2017-Mar-27 13:32N 01°15' E 103°29'0 0.2
2017-Mar-27 12:32N 01°15' E 103°29'0 0.1
2017-Mar-27 11:32N 01°16' E 103°29'0 0.0
2017-Mar-27 08:29N 01°16' E 103°29'0 0.1
2017-Mar-27 05:32N 01°16' E 103°29'0 0.0
2017-Mar-27 04:29N 01°15' E 103°29'0 0.3
2017-Mar-27 03:33N 01°15' E 103°29'5 5.0
2017-Mar-27 02:33N 01°10' E 103°29'3911.6
2017-Mar-26 23:09N 01°33' E 102°56'711.7
2017-Mar-26 22:33N 01°36' E 102°51'1211.3
2017-Mar-26 21:32N 01°42' E 102°41'1110.9
2017-Mar-26 20:33N 01°46' E 102°31'  

Dump ship's entire track history